San Diego, California
Current Conditions -  °F | °C
As of 10:51 PM on Saturday 20 Dec 2014 (Local Time) from KSAN Reporting Station
Broken Clouds Broken Clouds  
Wind Chill: 17°   Ceiling: 3500
Heat Index: 17°   Visibility: 10mi
Dew Point: 12°   Wind: 3mph
Humidity: 75%   Direction: 170°S
Pressure: 30.17"   Gusts: NA
Location:  32.72°N, 117.16°W
Report Text: KSAN 210651Z 17003KT 10SM BKN035 17/12 A3017 RMK AO2 SLP217 T01670122 $
Loading
Personal Weather Stations






























Interactive Weather Map New forecast layout! Learn more

10-Day Weather Forecast

Advertisements
Track Severe Weather on mobile